Terminal Aerodrome Forecast
Issued by NWS

Home | Current Version | Previous Version | Text Only | Print | Product List | Glossary On
Versions: 1 2 3 4 5 6 7 8 9 10 11 12 13 14 15 16 17 18 19 20 21 22 23 24 25 26
000
FTUS42 KMFL 041014 AAB
TAFOPF
TAF AMD
KOPF 041014Z 0410/0506 22005KT P6SM BKN003
     FM041200 22010G18KT P6SM SCT025 BKN050
     FM041600 24010G18KT P6SM -SHRA SCT025 BKN050
      TEMPO 0416/0420 P6SM -TSRA SCT020CB BKN050=

USA.gov is the U.S. government's official web portal to all federal, state and local government web resources and services.